createdAt,value
2023-04-28T00:01:08.444Z,99223.31
2023-04-28T00:06:11.396Z,99223.15
2023-04-28T00:11:13.647Z,99222.77
2023-04-28T00:16:15.429Z,99221.84
2023-04-28T00:21:18.265Z,99216.33
2023-04-28T00:26:20.252Z,99215.08
2023-04-28T00:31:22.805Z,99211.64
2023-04-28T00:36:24.902Z,99214.05
2023-04-28T00:41:26.972Z,99212.13
2023-04-28T00:46:32.262Z,99212.34
2023-04-28T00:51:34.295Z,99207.88
2023-04-28T00:56:36.512Z,99208.35
2023-04-28T01:01:38.686Z,99206.76
2023-04-28T01:06:42.704Z,99205.98
2023-04-28T01:11:44.590Z,99205.63
2023-04-28T01:16:50.318Z,99204.35
2023-04-28T01:21:52.926Z,99213.88
2023-04-28T01:26:56.657Z,99207.53
2023-04-28T01:31:58.840Z,99206.34
2023-04-28T01:37:01.285Z,99210.52
2023-04-28T01:42:03.987Z,99214.70
2023-04-28T01:47:05.955Z,99212.60
2023-04-28T01:52:10.590Z,99213.75
2023-04-28T01:57:12.533Z,99214.32
2023-04-28T02:02:14.721Z,99209.80
2023-04-28T02:07:17.587Z,99201.84
2023-04-28T02:12:19.654Z,99198.33
2023-04-28T02:17:21.607Z,99200.80
2023-04-28T02:22:24.742Z,99199.35
2023-04-28T02:27:27.114Z,99197.38
2023-04-28T02:32:31.797Z,99194.02
2023-04-28T02:37:33.672Z,99191.20
2023-04-28T02:42:36.291Z,99188.71
2023-04-28T02:47:38.075Z,99191.45
2023-04-28T02:52:40.090Z,99190.73
2023-04-28T02:57:41.873Z,99185.89
2023-04-28T03:02:44.333Z,99191.52
2023-04-28T03:07:46.296Z,99194.25
2023-04-28T03:12:48.619Z,99197.83
2023-04-28T03:17:50.612Z,99191.24
2023-04-28T03:22:53.365Z,99191.30
2023-04-28T03:27:56.191Z,99192.61
2023-04-28T03:32:58.417Z,99191.06
2023-04-28T03:38:00.199Z,99190.11
2023-04-28T03:43:04.579Z,99182.28
2023-04-28T03:48:18.267Z,99179.77
2023-04-28T03:53:21.265Z,99177.06
2023-04-28T03:58:23.477Z,99178.09
2023-04-28T04:03:27.163Z,99180.08
2023-04-28T04:08:31.222Z,99183.09
2023-04-28T04:13:35.616Z,99186.02
2023-04-28T04:18:39.810Z,99191.41
2023-04-28T04:23:54.572Z,99189.84
2023-04-28T04:28:56.957Z,99195.20
2023-04-28T04:33:59.555Z,99200.45
2023-04-28T04:39:02.220Z,99199.94
2023-04-28T04:44:04.671Z,99203.56
2023-04-28T04:49:10.617Z,99201.86
2023-04-28T04:54:12.786Z,99199.36
2023-04-28T04:59:15.555Z,99197.81
2023-04-28T05:04:23.360Z,99195.41
2023-04-28T05:09:25.794Z,99192.16
2023-04-28T05:14:28.403Z,99190.73
2023-04-28T05:19:30.426Z,99196.32
2023-04-28T05:24:33.046Z,99192.09
2023-04-28T05:29:34.950Z,99193.04
2023-04-28T05:34:37.024Z,99196.39
2023-04-28T05:39:39.063Z,99200.96
2023-04-28T05:44:43.074Z,99201.65
2023-04-28T05:49:45.492Z,99196.17
2023-04-28T05:54:47.477Z,99193.02
2023-04-28T05:59:49.379Z,99191.84
2023-04-28T06:04:51.585Z,99190.42
2023-04-28T06:09:54.547Z,99188.33
2023-04-28T06:14:57.785Z,99193.69
2023-04-28T06:20:01.468Z,99196.23
2023-04-28T06:25:04.233Z,99191.13
2023-04-28T06:30:19.626Z,99181.11
2023-04-28T06:35:22.616Z,99182.83
2023-04-28T06:40:24.389Z,99179.23
2023-04-28T06:45:30.196Z,99176.03
2023-04-28T06:50:32.023Z,99174.89
2023-04-28T06:55:35.370Z,99168.59
2023-04-28T07:00:37.660Z,99159.34
2023-04-28T07:05:40.052Z,99149.15
2023-04-28T07:10:41.823Z,99140.86
2023-04-28T07:15:44.139Z,99137.96
2023-04-28T07:20:46.096Z,99135.20
2023-04-28T07:25:48.355Z,99133.16
2023-04-28T07:30:50.450Z,99132.23
2023-04-28T07:35:53.157Z,99126.77
2023-04-28T07:40:55.660Z,99127.46
2023-04-28T07:45:58.002Z,99122.43
2023-04-28T07:50:59.809Z,99120.39
2023-04-28T07:56:02.151Z,99114.50
2023-04-28T08:01:03.992Z,99109.41
2023-04-28T08:06:07.319Z,99112.48
2023-04-28T08:11:09.474Z,99109.01
2023-04-28T08:16:11.875Z,99108.37
2023-04-28T08:21:13.650Z,99106.39
2023-04-28T08:26:16.140Z,99099.98
2023-04-28T08:31:18.027Z,99096.14
2023-04-28T08:36:20.098Z,99088.35
2023-04-28T08:41:22.514Z,99085.30
2023-04-28T08:46:27.665Z,99076.66
2023-04-28T08:51:44.195Z,99070.56
2023-04-28T08:56:47.743Z,99069.38
2023-04-28T09:01:50.494Z,99066.12
2023-04-28T09:06:52.730Z,99061.63
2023-04-28T09:12:02.795Z,99060.34
2023-04-28T09:17:13.959Z,99056.38
2023-04-28T09:22:26.267Z,99053.11
2023-04-28T09:27:29.657Z,99047.42
2023-04-28T09:32:31.922Z,99044.29
2023-04-28T09:37:35.071Z,99039.61
2023-04-28T09:42:40.874Z,99027.69
2023-04-28T09:47:46.548Z,99027.26
2023-04-28T09:52:59.316Z,99018.30
2023-04-28T09:58:06.364Z,99009.48
2023-04-28T10:03:10.587Z,99000.51
2023-04-28T10:08:13.445Z,98993.10
2023-04-28T10:13:19.562Z,98989.02
2023-04-28T10:18:25.107Z,98977.45
2023-04-28T10:24:04.783Z,98978.65
2023-04-28T10:29:08.313Z,98965.11
2023-04-28T10:34:23.518Z,98957.33
2023-04-28T10:39:25.516Z,98953.40
2023-04-28T10:44:30.274Z,98945.86
2023-04-28T10:50:01.361Z,98939.24
2023-04-28T10:55:36.800Z,98924.77
2023-04-28T11:00:40.228Z,98918.23
2023-04-28T11:06:29.625Z,98910.92
2023-04-28T11:11:35.245Z,98907.34
2023-04-28T11:17:27.734Z,98904.38
2023-04-28T11:22:31.355Z,98889.48
2023-04-28T11:27:34.668Z,98889.98
2023-04-28T11:32:37.014Z,98885.13
2023-04-28T11:37:39.110Z,98883.58
2023-04-28T11:42:48.818Z,98881.56
2023-04-28T11:47:50.635Z,98875.64
2023-04-28T11:52:53.714Z,98874.73
2023-04-28T11:58:18.797Z,98870.52
2023-04-28T12:03:21.289Z,98867.57
2023-04-28T12:08:29.581Z,98858.52
2023-04-28T12:13:31.954Z,98844.65
2023-04-28T12:18:37.170Z,98840.83
2023-04-28T12:23:39.870Z,98832.93
2023-04-28T12:28:42.048Z,98820.05
2023-04-28T12:33:44.654Z,98814.21
2023-04-28T12:38:49.765Z,98813.94
2023-04-28T12:43:52.191Z,98808.83
2023-04-28T12:48:54.094Z,98805.17
2023-04-28T12:53:56.481Z,98795.84
2023-04-28T12:58:58.378Z,98789.59
2023-04-28T13:04:00.882Z,98782.57
2023-04-28T13:09:04.251Z,98777.58
2023-04-28T13:14:06.706Z,98766.16
2023-04-28T13:19:10.955Z,98759.13
2023-04-28T13:24:16.257Z,98758.82
2023-04-28T13:29:18.777Z,98760.02
2023-04-28T13:34:21.082Z,98754.88
2023-04-28T13:39:23.691Z,98746.75
2023-04-28T13:44:26.166Z,98740.77
2023-04-28T13:49:28.135Z,98738.73
2023-04-28T13:54:31.092Z,98731.79
2023-04-28T13:59:35.460Z,98735.20
2023-04-28T14:04:38.598Z,98730.23
2023-04-28T14:09:41.414Z,98723.74
2023-04-28T14:14:43.980Z,98719.00
2023-04-28T14:19:46.922Z,98714.37
2023-04-28T14:24:49.349Z,98709.33
2023-04-28T14:29:52.481Z,98704.94
2023-04-28T14:34:54.544Z,98702.14
2023-04-28T14:39:57.424Z,98698.47
2023-04-28T14:45:00.022Z,98696.58
2023-04-28T14:50:01.827Z,98699.38
2023-04-28T14:55:05.329Z,98690.97
2023-04-28T15:00:08.126Z,98686.54
2023-04-28T15:05:11.742Z,98683.61
2023-04-28T15:10:13.815Z,98680.66
2023-04-28T15:15:15.939Z,98677.10
2023-04-28T15:20:17.720Z,98677.09
2023-04-28T15:25:20.029Z,98672.57
2023-04-28T15:30:22.257Z,98671.22
2023-04-28T15:35:24.429Z,98661.96
2023-04-28T15:40:26.334Z,98653.00
2023-04-28T15:45:28.249Z,98647.30
2023-04-28T15:50:30.179Z,98650.95
2023-04-28T15:55:32.350Z,98646.06
2023-04-28T16:00:34.522Z,98638.77
2023-04-28T16:05:38.564Z,98639.86
2023-04-28T16:10:42.436Z,98646.34
2023-04-28T16:15:46.079Z,98640.84
2023-04-28T16:20:47.996Z,98635.42
2023-04-28T16:25:51.221Z,98628.66
2023-04-28T16:30:53.488Z,98634.23
2023-04-28T16:36:00.978Z,98634.60
2023-04-28T16:41:02.994Z,98634.08
2023-04-28T16:46:05.638Z,98628.89
2023-04-28T16:51:10.180Z,98624.92
2023-04-28T16:56:12.208Z,98630.98
2023-04-28T17:01:14.262Z,98627.27
2023-04-28T17:06:17.928Z,98635.02
2023-04-28T17:11:20.259Z,98632.30
2023-04-28T17:16:22.496Z,98628.58
2023-04-28T17:21:27.247Z,98631.13
2023-04-28T17:26:33.269Z,98629.95
2023-04-28T17:31:38.835Z,98633.15
2023-04-28T17:36:42.425Z,98635.21
2023-04-28T17:41:45.433Z,98631.40
2023-04-28T17:46:47.543Z,98633.52
2023-04-28T17:51:49.362Z,98632.58
2023-04-28T17:56:53.071Z,98630.08
2023-04-28T18:01:56.424Z,98634.42
2023-04-28T18:06:58.928Z,98631.61
2023-04-28T18:12:03.156Z,98633.81
2023-04-28T18:17:05.147Z,98632.27
2023-04-28T18:22:07.055Z,98635.58
2023-04-28T18:27:09.368Z,98634.94
2023-04-28T18:32:14.449Z,98640.01
2023-04-28T18:37:18.009Z,98643.00
2023-04-28T18:42:20.816Z,98644.64
2023-04-28T18:47:23.201Z,98648.95
2023-04-28T18:52:25.384Z,98650.58
2023-04-28T18:57:27.721Z,98649.05
2023-04-28T19:02:29.752Z,98652.59
2023-04-28T19:07:33.508Z,98652.89
2023-04-28T19:12:36.358Z,98652.56
2023-04-28T19:17:40.803Z,98655.38
2023-04-28T19:22:43.983Z,98656.66
2023-04-28T19:27:46.453Z,98657.54
2023-04-28T19:32:48.496Z,98648.80
2023-04-28T19:37:50.897Z,98643.98
2023-04-28T19:42:52.749Z,98642.80
2023-04-28T19:47:55.666Z,98643.91
2023-04-28T19:52:57.613Z,98639.54
2023-04-28T19:58:01.587Z,98639.30
2023-04-28T20:03:04.250Z,98637.67
2023-04-28T20:08:06.684Z,98626.13
2023-04-28T20:13:09.226Z,98624.41
2023-04-28T20:18:11.722Z,98623.30
2023-04-28T20:23:13.593Z,98624.13
2023-04-28T20:28:16.926Z,98627.90
2023-04-28T20:33:18.966Z,98631.19
2023-04-28T20:38:21.057Z,98627.55
2023-04-28T20:43:24.223Z,98629.55
2023-04-28T20:48:26.486Z,98631.70
2023-04-28T20:53:28.240Z,98629.55
2023-04-28T20:58:31.578Z,98628.33
2023-04-28T21:03:33.609Z,98623.80
2023-04-28T21:08:40.952Z,98618.38
2023-04-28T21:13:49.023Z,98623.29
2023-04-28T21:18:51.136Z,98624.84
2023-04-28T21:23:53.449Z,98622.65
2023-04-28T21:28:56.564Z,98625.66
2023-04-28T21:33:59.079Z,98620.98
2023-04-28T21:39:05.486Z,98622.44
2023-04-28T21:44:10.346Z,98619.41
2023-04-28T21:49:14.397Z,98613.70
2023-04-28T21:54:16.249Z,98611.03
2023-04-28T21:59:18.766Z,98612.24
2023-04-28T22:04:21.041Z,98606.08
2023-04-28T22:09:23.971Z,98608.23
2023-04-28T22:14:40.235Z,98603.68
2023-04-28T22:19:43.174Z,98600.20
2023-04-28T22:24:44.999Z,98592.63
2023-04-28T22:29:47.865Z,98591.11
2023-04-28T22:34:50.522Z,98587.22
2023-04-28T22:39:52.867Z,98580.80
2023-04-28T22:44:54.970Z,98578.49
2023-04-28T22:49:56.854Z,98570.95
2023-04-28T22:54:59.041Z,98570.30
2023-04-28T23:00:01.913Z,98565.89
2023-04-28T23:05:04.520Z,98561.70
2023-04-28T23:10:08.810Z,98564.67
2023-04-28T23:15:11.542Z,98562.58
2023-04-28T23:20:13.938Z,98558.58
2023-04-28T23:25:15.870Z,98554.92
2023-04-28T23:30:17.925Z,98553.73
2023-04-28T23:35:20.623Z,98544.90
2023-04-28T23:40:42.922Z,98542.83
2023-04-28T23:45:51.964Z,98536.35
2023-04-28T23:50:56.624Z,98528.55
2023-04-28T23:55:58.605Z,98531.40
